Time;durP1;ratioP1;P1;durP2;ratioP2;P2;SDS_P1;SDS_P2;PMS_P1;PMS_P2;Temp;Humidity;BMP_temperature;BMP_pressure;BME280_temperature;BME280_humidity;BME280_pressure;Samples;Min_cycle;Max_cycle;Signal;HPM_P1;HPM_P2
2024/03/22 00:00:16;;;;;;;18.47;11.67;;;13.40;99.90;;;;;;5050981;28;20810;-75
2024/03/22 00:02:42;;;;;;;14.27;9.80;;;13.40;99.90;;;;;;5056176;28;20200;-75
2024/03/22 00:05:07;;;;;;;17.47;10.53;;;13.40;99.90;;;;;;5049485;28;20682;-75
2024/03/22 00:07:33;;;;;;;14.57;9.97;;;13.40;99.90;;;;;;5049513;28;20243;-75
2024/03/22 00:09:59;;;;;;;16.27;10.90;;;13.40;99.90;;;;;;5049986;28;20169;-75
2024/03/22 00:12:25;;;;;;;16.73;10.20;;;13.40;99.90;;;;;;5040986;28;20417;-75
2024/03/22 00:14:54;;;;;;;11.93;9.93;;;13.40;99.90;;;;;;5032727;28;20180;-75
2024/03/22 00:17:20;;;;;;;16.27;10.07;;;13.40;99.90;;;;;;5050508;28;20653;-74
2024/03/22 00:19:46;;;;;;;16.57;11.30;;;13.40;99.90;;;;;;5052605;28;20591;-75
2024/03/22 00:22:12;;;;;;;19.03;10.90;;;13.40;99.90;;;;;;5032978;28;20999;-75
2024/03/22 00:24:37;;;;;;;14.47;10.00;;;13.40;99.90;;;;;;5054366;28;20513;-74
2024/03/22 00:27:03;;;;;;;17.67;12.67;;;13.30;99.90;;;;;;5025333;28;20197;-74
2024/03/22 00:29:29;;;;;;;17.57;11.60;;;13.30;99.90;;;;;;5052960;28;20184;-75
2024/03/22 00:31:54;;;;;;;18.67;12.10;;;13.30;99.90;;;;;;5046008;28;20173;-74
2024/03/22 00:34:20;;;;;;;14.90;10.37;;;13.30;99.90;;;;;;5059322;28;20192;-74
2024/03/22 00:36:46;;;;;;;17.53;11.23;;;13.30;99.90;;;;;;5049680;28;20184;-76
2024/03/22 00:39:12;;;;;;;14.70;10.80;;;13.30;99.90;;;;;;5032778;28;20580;-76
2024/03/22 00:41:39;;;;;;;14.10;10.90;;;13.30;99.90;;;;;;5049309;28;20181;-75
2024/03/22 00:44:04;;;;;;;15.45;10.55;;;13.30;99.90;;;;;;5045846;28;20580;-75
2024/03/22 00:46:31;;;;;;;15.00;10.27;;;13.30;99.90;;;;;;5044816;28;20542;-75
2024/03/22 00:48:58;;;;;;;17.13;12.98;;;13.30;99.90;;;;;;5056242;28;20211;-76
2024/03/22 00:51:25;;;;;;;16.67;10.63;;;13.30;99.90;;;;;;5033836;28;20173;-76
2024/03/22 00:53:51;;;;;;;18.50;12.10;;;13.30;99.90;;;;;;5035598;28;20588;-76
2024/03/22 00:56:16;;;;;;;16.30;10.70;;;13.30;99.90;;;;;;5054022;28;20626;-76
2024/03/22 00:58:42;;;;;;;12.80;9.10;;;13.30;99.90;;;;;;5046418;28;20189;-77
2024/03/22 01:01:08;;;;;;;14.73;9.80;;;13.30;99.90;;;;;;5054654;28;20625;-77
2024/03/22 01:03:34;;;;;;;15.40;9.70;;;13.30;99.90;;;;;;5055337;28;20175;-76
2024/03/22 01:06:00;;;;;;;14.90;10.35;;;13.30;99.90;;;;;;5054331;28;20177;-77
2024/03/22 01:08:26;;;;;;;16.70;8.93;;;13.30;99.90;;;;;;5053202;28;20294;-77
2024/03/22 01:10:54;;;;;;;13.53;9.80;;;13.30;99.90;;;;;;5040954;28;21344;-77
2024/03/22 01:13:20;;;;;;;14.18;9.63;;;13.30;99.90;;;;;;5055954;28;20182;-75
2024/03/22 01:15:46;;;;;;;11.20;7.90;;;13.30;99.90;;;;;;5034090;28;20178;-76
2024/03/22 01:18:12;;;;;;;12.13;8.20;;;13.30;99.90;;;;;;5031558;28;20254;-75
2024/03/22 01:20:38;;;;;;;10.90;8.50;;;13.30;99.90;;;;;;5052587;28;20184;-75
2024/03/22 01:23:04;;;;;;;13.13;8.97;;;13.30;99.90;;;;;;5052546;28;20256;-75
2024/03/22 01:25:30;;;;;;;11.73;8.48;;;13.30;99.90;;;;;;5053605;28;20588;-75
2024/03/22 01:27:56;;;;;;;12.37;8.97;;;13.30;99.90;;;;;;5053861;28;20208;-75
2024/03/22 01:30:22;;;;;;;17.50;9.73;;;13.30;99.90;;;;;;5035895;28;20682;-75
2024/03/22 01:32:48;;;;;;;13.33;9.07;;;13.30;99.90;;;;;;5055890;28;20169;-75
2024/03/22 01:35:14;;;;;;;11.00;8.67;;;13.30;99.90;;;;;;5053275;28;20594;-75
2024/03/22 01:37:40;;;;;;;10.77;8.30;;;13.30;99.90;;;;;;5035580;28;20205;-75
2024/03/22 01:40:06;;;;;;;10.13;7.35;;;13.30;99.90;;;;;;5053515;28;20181;-76
2024/03/22 01:42:32;;;;;;;14.35;9.05;;;13.30;99.90;;;;;;5053468;28;20180;-75
2024/03/22 01:44:57;;;;;;;9.67;7.70;;;13.30;99.90;;;;;;5053309;28;20638;-75
2024/03/22 01:47:23;;;;;;;14.23;10.03;;;13.30;99.90;;;;;;5051962;28;20589;-75
2024/03/22 01:49:52;;;;;;;13.67;9.60;;;13.30;99.90;;;;;;5052144;28;20177;-75
2024/03/22 01:52:18;;;;;;;11.85;8.73;;;13.30;99.90;;;;;;5053433;28;20180;-75
2024/03/22 01:54:43;;;;;;;13.00;8.60;;;13.30;99.90;;;;;;5053143;28;20173;-75
2024/03/22 01:57:10;;;;;;;13.73;9.23;;;13.30;99.90;;;;;;5052157;28;20193;-75
2024/03/22 01:59:35;;;;;;;12.00;9.05;;;13.30;99.90;;;;;;5051914;28;20662;-75
2024/03/22 02:02:02;;;;;;;13.03;9.40;;;13.30;99.90;;;;;;5035531;28;20176;-75
2024/03/22 02:04:28;;;;;;;10.88;8.43;;;13.30;99.90;;;;;;5052823;28;20169;-75
2024/03/22 02:06:53;;;;;;;13.70;8.70;;;13.30;99.90;;;;;;5052498;28;20612;-75
2024/03/22 02:09:20;;;;;;;12.97;8.50;;;13.30;99.90;;;;;;5052788;28;20177;-75
2024/03/22 02:11:47;;;;;;;11.88;7.90;;;13.30;99.90;;;;;;5036659;28;20544;-75
2024/03/22 02:14:13;;;;;;;10.70;7.87;;;13.30;99.90;;;;;;5051538;28;20264;-75
2024/03/22 02:16:40;;;;;;;13.02;8.13;;;13.20;99.90;;;;;;5052932;28;20586;-76
2024/03/22 02:19:07;;;;;;;11.17;7.90;;;13.20;99.90;;;;;;5051161;28;20199;-75
2024/03/22 02:21:32;;;;;;;13.65;9.57;;;13.20;99.90;;;;;;5052679;28;20605;-75
2024/03/22 02:23:58;;;;;;;14.10;9.43;;;13.20;99.90;;;;;;5051400;28;20650;-75
2024/03/22 02:26:24;;;;;;;10.53;8.57;;;13.30;99.90;;;;;;5051508;28;20177;-75
2024/03/22 02:28:49;;;;;;;13.20;9.53;;;13.20;99.90;;;;;;5052652;28;20201;-75
2024/03/22 02:31:15;;;;;;;13.03;9.60;;;13.20;99.90;;;;;;5051528;28;20197;-75
2024/03/22 02:33:41;;;;;;;12.50;9.17;;;13.20;99.90;;;;;;5052332;28;20463;-75
2024/03/22 02:36:07;;;;;;;12.63;8.40;;;13.20;99.90;;;;;;5052246;28;20180;-75
2024/03/22 02:38:32;;;;;;;14.23;9.47;;;13.20;99.90;;;;;;5052575;28;20283;-75
2024/03/22 02:40:58;;;;;;;10.93;8.53;;;13.20;99.90;;;;;;5051535;28;20181;-75
2024/03/22 02:43:24;;;;;;;11.15;8.23;;;13.20;99.90;;;;;;5051077;28;20226;-75
2024/03/22 02:45:50;;;;;;;12.10;9.00;;;13.30;99.90;;;;;;5051347;28;20201;-75
2024/03/22 02:48:16;;;;;;;13.93;9.53;;;13.30;99.90;;;;;;5054362;28;20215;-75
2024/03/22 02:50:42;;;;;;;9.90;8.07;;;13.20;99.90;;;;;;5043181;28;20588;-75
2024/03/22 02:53:07;;;;;;;16.73;10.10;;;13.30;99.90;;;;;;5041228;28;20230;-75
2024/03/22 02:55:38;;;;;;;11.37;8.73;;;13.20;99.90;;;;;;5051764;28;20583;-75
2024/03/22 02:58:04;;;;;;;14.70;8.70;;;13.30;99.90;;;;;;5050896;28;20200;-75
2024/03/22 03:00:29;;;;;;;12.60;8.77;;;13.30;99.90;;;;;;5051923;28;20203;-75
2024/03/22 03:02:55;;;;;;;15.17;8.47;;;13.30;99.90;;;;;;5052123;28;20580;-75
2024/03/22 03:05:23;;;;;;;11.37;7.80;;;13.30;99.90;;;;;;5051618;28;20272;-75
2024/03/22 03:07:50;;;;;;;10.97;6.97;;;13.30;99.90;;;;;;5051610;28;20571;-75
2024/03/22 03:10:16;;;;;;;12.83;7.53;;;13.30;99.90;;;;;;5051997;28;20590;-75
2024/03/22 03:12:42;;;;;;;11.23;8.13;;;13.30;99.90;;;;;;5050429;28;20685;-76
2024/03/22 03:15:08;;;;;;;11.70;7.83;;;13.40;99.90;;;;;;5051403;28;20307;-75
2024/03/22 03:17:33;;;;;;;9.87;7.67;;;13.40;99.90;;;;;;5050569;28;20227;-75
2024/03/22 03:19:59;;;;;;;8.77;7.23;;;13.40;99.90;;;;;;5051823;28;21159;-75
2024/03/22 03:22:25;;;;;;;12.87;7.00;;;13.40;99.90;;;;;;5050312;28;20211;-75
2024/03/22 03:24:51;;;;;;;11.83;6.40;;;13.40;99.90;;;;;;5053537;28;20219;-75
2024/03/22 03:27:16;;;;;;;8.80;6.50;;;13.50;99.90;;;;;;5051592;28;20212;-75
2024/03/22 03:29:42;;;;;;;9.73;6.80;;;13.50;99.90;;;;;;5050452;28;20641;-75
2024/03/22 03:32:08;;;;;;;10.73;6.47;;;13.50;99.90;;;;;;5051483;28;20177;-75
2024/03/22 03:34:33;;;;;;;11.40;7.00;;;13.50;99.90;;;;;;5051236;28;21137;-75
2024/03/22 03:37:01;;;;;;;10.40;6.87;;;13.50;99.90;;;;;;5033713;28;20693;-75
2024/03/22 03:39:29;;;;;;;8.52;6.13;;;13.50;99.90;;;;;;5050304;28;20180;-75
2024/03/22 03:41:55;;;;;;;8.65;6.10;;;13.50;99.90;;;;;;5051384;28;20188;-75
2024/03/22 03:44:20;;;;;;;10.10;7.63;;;13.50;99.90;;;;;;5051081;28;20169;-75
2024/03/22 03:46:46;;;;;;;7.87;5.90;;;13.50;99.90;;;;;;5050079;28;20567;-75
2024/03/22 03:49:12;;;;;;;11.27;6.97;;;13.50;99.90;;;;;;5051335;28;20187;-75
2024/03/22 03:51:41;;;;;;;11.87;6.40;;;13.50;99.90;;;;;;5051453;28;20173;-75
2024/03/22 03:54:06;;;;;;;9.70;7.18;;;13.40;99.90;;;;;;5051254;28;20181;-75
2024/03/22 03:56:32;;;;;;;7.97;5.80;;;13.40;99.90;;;;;;5051007;28;20176;-75
2024/03/22 03:58:58;;;;;;;10.57;6.10;;;13.40;99.90;;;;;;5051001;28;20205;-75
2024/03/22 04:01:24;;;;;;;7.70;6.13;;;13.50;99.90;;;;;;5052020;28;20219;-75
2024/03/22 04:03:49;;;;;;;7.90;5.40;;;13.40;99.90;;;;;;5050958;28;20192;-75
2024/03/22 04:06:15;;;;;;;10.00;5.83;;;13.40;99.90;;;;;;5051179;28;20584;-75
2024/03/22 04:08:42;;;;;;;8.03;5.20;;;13.50;99.90;;;;;;5051098;28;20240;-75
2024/03/22 04:11:08;;;;;;;8.73;6.38;;;13.50;99.90;;;;;;5033212;28;20266;-75
2024/03/22 04:13:34;;;;;;;6.67;5.40;;;13.50;99.90;;;;;;5042271;28;20801;-75
2024/03/22 04:16:00;;;;;;;10.90;6.33;;;13.50;99.90;;;;;;5049687;28;20177;-76
2024/03/22 04:18:26;;;;;;;7.57;6.03;;;13.50;99.90;;;;;;5049475;28;20700;-75
2024/03/22 04:20:56;;;;;;;7.10;5.68;;;13.50;99.90;;;;;;5050805;28;20200;-75
2024/03/22 04:23:23;;;;;;;8.77;5.80;;;13.50;99.90;;;;;;5050677;28;20560;-75
2024/03/22 04:25:58;;;;;;;8.50;6.57;;;13.50;99.90;;;;;;5063555;28;20963;-75
2024/03/22 04:28:24;;;;;;;10.30;6.78;;;13.60;99.90;;;;;;5029436;28;20762;-75
2024/03/22 04:30:59;;;;;;;9.77;6.28;;;13.50;99.90;;;;;;5030907;28;20907;-75
2024/03/22 04:33:25;;;;;;;10.23;6.43;;;13.50;99.90;;;;;;5030475;28;20264;-75
2024/03/22 04:35:51;;;;;;;7.72;5.40;;;13.40;99.90;;;;;;5048704;28;20588;-76
2024/03/22 04:38:17;;;;;;;8.80;6.67;;;13.40;99.90;;;;;;5053235;28;20205;-75
2024/03/22 04:40:43;;;;;;;9.63;6.70;;;13.40;99.90;;;;;;5049512;28;20272;-75
2024/03/22 04:43:09;;;;;;;10.07;6.73;;;13.30;99.90;;;;;;5049575;28;20177;-75
2024/03/22 04:45:34;;;;;;;10.03;6.80;;;13.30;99.90;;;;;;5050131;28;21040;-75
2024/03/22 04:48:03;;;;;;;9.00;5.73;;;13.20;99.90;;;;;;5054828;28;20569;-75
2024/03/22 04:50:29;;;;;;;7.23;5.73;;;13.20;99.90;;;;;;5044044;28;20181;-75
2024/03/22 04:52:57;;;;;;;6.90;5.37;;;13.20;99.90;;;;;;5036451;28;20615;-75
2024/03/22 04:55:23;;;;;;;8.80;6.40;;;13.10;99.90;;;;;;5049023;28;21156;-75
2024/03/22 04:57:49;;;;;;;7.30;5.87;;;13.10;99.90;;;;;;5049068;28;20645;-75
2024/03/22 05:00:15;;;;;;;6.80;6.07;;;13.20;99.90;;;;;;5050411;28;20184;-75
2024/03/22 05:02:41;;;;;;;7.83;5.73;;;13.20;99.90;;;;;;5050213;28;21013;-75
2024/03/22 05:05:09;;;;;;;11.00;6.27;;;13.20;99.90;;;;;;5050340;28;20567;-75
2024/03/22 05:07:35;;;;;;;9.40;6.90;;;13.20;99.90;;;;;;5053787;28;20247;-75
2024/03/22 05:10:03;;;;;;;9.47;6.70;;;13.30;99.90;;;;;;5034882;28;20208;-75
2024/03/22 05:12:29;;;;;;;9.90;7.30;;;13.30;99.90;;;;;;5030326;28;20231;-75
2024/03/22 05:14:55;;;;;;;8.82;7.35;;;13.30;99.90;;;;;;5032115;28;20166;-75
2024/03/22 05:17:20;;;;;;;8.37;6.60;;;13.30;99.90;;;;;;5029308;28;20254;-75
2024/03/22 05:19:46;;;;;;;9.03;6.83;;;13.30;99.90;;;;;;5030274;28;20634;-75
2024/03/22 05:22:12;;;;;;;8.60;7.15;;;13.40;99.90;;;;;;5030346;28;20548;-75
2024/03/22 05:24:38;;;;;;;13.20;7.53;;;13.40;99.90;;;;;;5028758;28;20189;-75
2024/03/22 05:27:04;;;;;;;10.37;8.13;;;13.40;99.90;;;;;;5030121;28;20284;-75
2024/03/22 05:29:29;;;;;;;8.87;6.90;;;13.40;99.90;;;;;;5046257;28;20239;-76
2024/03/22 05:31:55;;;;;;;10.10;7.00;;;13.40;99.90;;;;;;5029406;28;20197;-75
2024/03/22 05:34:21;;;;;;;8.20;6.80;;;13.50;99.90;;;;;;5030172;28;20193;-75
2024/03/22 05:36:47;;;;;;;10.83;6.90;;;13.50;99.90;;;;;;5029999;28;20203;-75
2024/03/22 05:39:13;;;;;;;11.93;7.57;;;13.50;99.90;;;;;;5030278;28;20170;-75
2024/03/22 05:41:39;;;;;;;11.60;6.93;;;13.50;99.90;;;;;;5039456;28;20587;-75
2024/03/22 05:44:05;;;;;;;8.00;6.77;;;13.60;99.90;;;;;;5033583;28;20573;-75
2024/03/22 05:46:31;;;;;;;9.83;6.87;;;13.60;99.90;;;;;;5033621;28;21141;-75
2024/03/22 05:48:58;;;;;;;7.77;6.70;;;13.70;99.90;;;;;;5018834;28;20697;-75
2024/03/22 05:51:24;;;;;;;8.10;6.57;;;13.70;99.90;;;;;;5039140;28;20657;-76
2024/03/22 05:53:50;;;;;;;9.83;7.90;;;13.80;99.90;;;;;;5043567;28;20691;-75
2024/03/22 05:56:17;;;;;;;8.93;7.10;;;13.80;99.90;;;;;;5039578;28;20668;-76
2024/03/22 05:58:42;;;;;;;11.40;7.30;;;13.80;99.90;;;;;;5034507;28;20217;-76
2024/03/22 06:01:08;;;;;;;9.33;7.70;;;13.90;99.90;;;;;;5039515;28;20593;-76
2024/03/22 06:03:34;;;;;;;15.83;7.80;;;13.90;99.90;;;;;;5016835;28;20186;-76
2024/03/22 06:06:00;;;;;;;12.53;8.70;;;13.90;99.90;;;;;;5042697;28;20185;-76
2024/03/22 06:08:27;;;;;;;13.15;9.52;;;14.00;99.90;;;;;;5034469;28;20213;-76
2024/03/22 06:10:54;;;;;;;9.60;7.53;;;14.00;99.90;;;;;;5033525;28;20173;-75
2024/03/22 06:13:20;;;;;;;9.50;7.70;;;14.00;99.90;;;;;;5032945;28;20579;-75
2024/03/22 06:15:49;;;;;;;10.83;8.20;;;14.10;99.90;;;;;;5036352;28;20585;-76
2024/03/22 06:18:15;;;;;;;9.67;8.17;;;14.20;99.90;;;;;;5039229;28;20235;-76
2024/03/22 06:20:40;;;;;;;10.97;7.83;;;14.20;99.90;;;;;;5031612;28;20592;-75
2024/03/22 06:23:07;;;;;;;10.00;8.70;;;14.30;99.90;;;;;;5031950;28;20670;-75
2024/03/22 06:25:33;;;;;;;11.03;7.97;;;14.40;99.90;;;;;;5032809;28;20220;-75
2024/03/22 06:27:59;;;;;;;10.73;8.50;;;14.50;99.90;;;;;;5049199;28;21067;-75
2024/03/22 06:30:25;;;;;;;12.43;8.10;;;14.50;99.90;;;;;;5034719;28;20596;-76
2024/03/22 06:32:52;;;;;;;9.77;8.20;;;14.60;99.90;;;;;;5032790;28;20181;-76
2024/03/22 06:35:17;;;;;;;10.97;7.93;;;14.60;99.90;;;;;;5030838;28;20642;-76
2024/03/22 06:37:43;;;;;;;9.10;7.77;;;14.70;99.90;;;;;;5032460;28;20201;-75
2024/03/22 06:40:09;;;;;;;9.27;7.00;;;14.70;99.90;;;;;;5037202;28;20169;-75
2024/03/22 06:42:35;;;;;;;11.50;8.13;;;14.80;99.90;;;;;;5035096;28;20181;-75
2024/03/22 06:45:02;;;;;;;12.63;8.90;;;14.80;99.90;;;;;;5035738;28;20591;-75
2024/03/22 06:47:28;;;;;;;10.43;8.20;;;14.80;99.90;;;;;;5046877;28;20309;-76
2024/03/22 06:49:54;;;;;;;9.83;8.23;;;14.80;99.90;;;;;;5045201;28;20584;-76
2024/03/22 06:52:20;;;;;;;9.40;8.13;;;14.90;99.90;;;;;;5049308;28;20592;-75
2024/03/22 06:54:47;;;;;;;9.70;7.60;;;14.90;99.90;;;;;;5041060;28;20182;-75
2024/03/22 06:57:12;;;;;;;10.80;8.57;;;15.00;99.90;;;;;;5049849;28;20214;-75
2024/03/22 06:59:38;;;;;;;9.13;7.77;;;15.10;99.90;;;;;;5047671;28;21387;-75
2024/03/22 07:02:04;;;;;;;12.30;8.90;;;15.20;99.90;;;;;;5026818;28;20173;-75
2024/03/22 07:04:30;;;;;;;9.70;8.20;;;15.30;99.90;;;;;;5044655;28;20635;-75
2024/03/22 07:06:55;;;;;;;14.10;8.50;;;15.40;99.90;;;;;;5043253;28;20552;-76
2024/03/22 07:09:21;;;;;;;10.23;8.17;;;15.50;99.90;;;;;;5046590;28;20665;-76
2024/03/22 07:11:47;;;;;;;12.50;8.90;;;15.60;99.90;;;;;;5043761;28;20192;-76
2024/03/22 07:14:13;;;;;;;11.67;8.80;;;15.70;99.90;;;;;;5043826;28;20584;-76
2024/03/22 07:16:38;;;;;;;13.50;8.60;;;15.80;99.90;;;;;;5050793;28;20238;-76
2024/03/22 07:19:05;;;;;;;11.83;8.17;;;15.90;99.90;;;;;;5050517;28;20630;-76
2024/03/22 07:21:31;;;;;;;11.00;9.70;;;15.90;99.90;;;;;;5034038;28;20192;-77
2024/03/22 07:23:57;;;;;;;13.13;8.90;;;16.00;99.90;;;;;;5054052;28;20579;-76
2024/03/22 07:26:22;;;;;;;13.03;9.30;;;16.10;99.90;;;;;;5043575;28;20184;-77
2024/03/22 07:28:48;;;;;;;13.83;9.70;;;16.20;99.90;;;;;;5033783;28;20208;-78
2024/03/22 07:31:14;;;;;;;8.70;7.57;;;16.30;99.90;;;;;;5035991;28;20173;-77
2024/03/22 07:33:40;;;;;;;10.17;8.00;;;16.40;99.90;;;;;;5033403;28;20243;-77
2024/03/22 07:36:06;;;;;;;10.70;8.80;;;16.40;99.90;;;;;;5044945;28;21019;-78
2024/03/22 07:38:32;;;;;;;12.70;9.60;;;16.50;99.90;;;;;;5034733;28;20620;-80
2024/03/22 07:40:58;;;;;;;14.73;8.93;;;16.50;99.90;;;;;;5030193;28;21145;-78
2024/03/22 07:43:24;;;;;;;11.33;8.70;;;16.50;99.90;;;;;;5032532;28;20604;-78
2024/03/22 07:45:49;;;;;;;11.60;9.30;;;16.60;99.90;;;;;;5051203;28;20598;-77
2024/03/22 07:48:15;;;;;;;13.60;9.70;;;16.80;99.90;;;;;;5037929;28;20588;-78
2024/03/22 07:50:43;;;;;;;12.10;9.80;;;16.90;99.90;;;;;;5043993;28;20228;-77
2024/03/22 07:53:09;;;;;;;11.47;9.43;;;17.20;99.90;;;;;;5041746;28;20658;-77
2024/03/22 07:55:35;;;;;;;11.03;8.83;;;17.40;99.90;;;;;;5041469;28;21023;-75
2024/03/22 07:58:01;;;;;;;12.00;8.53;;;17.70;99.90;;;;;;5038876;28;20631;-77
2024/03/22 08:00:27;;;;;;;12.57;9.07;;;18.00;99.90;;;;;;5038949;28;21000;-76
2024/03/22 08:02:53;;;;;;;10.23;8.60;;;18.20;99.90;;;;;;5036113;28;20235;-76
2024/03/22 08:05:19;;;;;;;11.93;8.57;;;18.50;99.90;;;;;;5037410;28;20931;-77
2024/03/22 08:07:45;;;;;;;11.23;9.00;;;18.70;99.90;;;;;;5023124;28;20232;-75
2024/03/22 08:10:11;;;;;;;15.37;9.13;;;18.90;99.90;;;;;;5056713;28;20619;-75
2024/03/22 08:12:36;;;;;;;11.60;9.93;;;19.00;99.90;;;;;;5039945;28;21198;-75
2024/03/22 08:15:02;;;;;;;9.57;7.67;;;19.10;99.90;;;;;;5042818;28;20544;-76
2024/03/22 08:17:28;;;;;;;9.77;8.10;;;19.10;99.90;;;;;;5045446;28;20549;-76
2024/03/22 08:19:54;;;;;;;11.63;9.17;;;19.10;99.90;;;;;;5032162;28;20593;-75
2024/03/22 08:22:20;;;;;;;12.97;8.30;;;19.10;99.90;;;;;;5044097;28;20611;-75
2024/03/22 08:24:46;;;;;;;11.27;9.33;;;19.20;99.90;;;;;;5032883;28;20165;-76
2024/03/22 08:27:11;;;;;;;11.23;9.20;;;19.20;99.90;;;;;;5031976;28;20197;-75
2024/03/22 08:29:37;;;;;;;10.47;8.00;;;19.30;99.90;;;;;;5030409;28;20177;-75
2024/03/22 08:32:04;;;;;;;10.43;9.30;;;19.50;99.90;;;;;;5030838;28;20194;-76
2024/03/22 08:34:32;;;;;;;9.73;8.73;;;19.80;99.90;;;;;;5051869;28;21134;-76
2024/03/22 08:36:58;;;;;;;10.90;9.70;;;20.10;99.90;;;;;;5029033;28;20616;-75
2024/03/22 08:39:24;;;;;;;10.57;9.40;;;20.30;99.90;;;;;;5030777;28;20634;-75
2024/03/22 08:41:51;;;;;;;9.43;8.27;;;20.40;99.90;;;;;;5032739;28;20579;-74
2024/03/22 08:44:16;;;;;;;10.03;9.00;;;20.50;99.90;;;;;;5029201;28;20584;-75
2024/03/22 08:46:42;;;;;;;12.90;8.80;;;20.50;99.90;;;;;;5038750;28;20728;-75
2024/03/22 08:49:08;;;;;;;8.60;7.57;;;20.40;99.90;;;;;;5029370;28;20296;-76
2024/03/22 08:51:33;;;;;;;8.33;7.10;;;20.50;99.90;;;;;;5035829;28;20187;-75
2024/03/22 08:54:00;;;;;;;10.83;7.97;;;20.40;99.90;;;;;;5031715;28;20636;-76
2024/03/22 08:56:26;;;;;;;9.07;7.30;;;20.40;99.90;;;;;;5035183;28;20173;-75
2024/03/22 08:58:52;;;;;;;7.13;6.43;;;20.30;99.90;;;;;;5031416;28;20973;-75
2024/03/22 09:01:18;;;;;;;8.73;6.17;;;20.20;99.90;;;;;;5030539;28;20611;-74
2024/03/22 09:03:46;;;;;;;8.43;6.13;;;20.10;99.90;;;;;;5029106;28;20196;-75
2024/03/22 09:06:12;;;;;;;8.70;6.33;;;20.10;99.90;;;;;;5030452;28;20588;-74
2024/03/22 09:08:38;;;;;;;8.07;5.87;;;20.20;99.90;;;;;;5033927;28;20639;-74
2024/03/22 09:11:04;;;;;;;8.23;5.53;;;20.40;99.90;;;;;;5041728;28;20600;-74
2024/03/22 09:13:31;;;;;;;5.47;4.53;;;20.60;99.90;;;;;;5030801;28;20178;-74
2024/03/22 09:15:59;;;;;;;8.10;5.97;;;20.70;99.90;;;;;;5031420;28;20624;-74
2024/03/22 09:18:26;;;;;;;7.00;5.10;;;21.00;99.90;;;;;;5046383;28;20729;-74
2024/03/22 09:20:56;;;;;;;5.77;4.57;;;21.30;99.90;;;;;;5036262;28;20584;-74
2024/03/22 09:23:22;;;;;;;5.67;3.90;;;21.60;99.90;;;;;;5033868;28;20638;-74
2024/03/22 09:25:47;;;;;;;6.57;3.70;;;21.90;99.90;;;;;;5036150;28;20587;-74
2024/03/22 09:28:14;;;;;;;7.70;3.60;;;22.20;99.90;;;;;;5033963;28;21001;-73
2024/03/22 09:30:40;;;;;;;5.37;3.17;;;22.40;99.90;;;;;;5038994;28;20234;-74
2024/03/22 09:33:07;;;;;;;4.40;2.70;;;22.60;99.90;;;;;;5032837;28;21137;-74
2024/03/22 09:35:34;;;;;;;5.10;3.40;;;23.00;99.90;;;;;;5040740;28;20589;-74
2024/03/22 09:37:59;;;;;;;6.13;3.47;;;23.20;99.90;;;;;;5050021;28;20623;-74
2024/03/22 09:40:25;;;;;;;5.90;2.57;;;23.40;99.90;;;;;;5034008;28;20661;-74
2024/03/22 09:42:53;;;;;;;3.80;2.40;;;23.50;99.90;;;;;;5042363;28;20967;-75
2024/03/22 09:45:20;;;;;;;6.87;3.17;;;23.50;99.90;;;;;;5033467;28;20189;-76
2024/03/22 09:47:48;;;;;;;3.97;2.80;;;23.50;99.90;;;;;;5033814;28;20652;-74
2024/03/22 09:50:14;;;;;;;4.03;2.30;;;23.50;99.90;;;;;;5033507;28;20592;-75
2024/03/22 09:52:42;;;;;;;6.20;3.40;;;23.60;99.90;;;;;;5048631;28;20579;-75
2024/03/22 09:55:09;;;;;;;3.80;2.23;;;23.70;99.90;;;;;;5043852;28;20586;-74
2024/03/22 09:57:38;;;;;;;4.23;2.60;;;23.80;99.90;;;;;;5035180;28;20612;-75
2024/03/22 10:00:07;;;;;;;5.73;3.13;;;23.80;99.90;;;;;;5041672;28;20588;-74
2024/03/22 10:02:38;;;;;;;5.60;2.83;;;23.80;99.90;;;;;;5039539;28;20606;-75
2024/03/22 10:05:04;;;;;;;7.10;3.00;;;23.80;99.90;;;;;;5032057;28;20588;-74
2024/03/22 10:07:30;;;;;;;8.13;2.50;;;23.80;99.90;;;;;;5033435;28;20640;-74
2024/03/22 10:09:59;;;;;;;3.90;2.83;;;23.70;99.90;;;;;;5040741;28;21065;-74
2024/03/22 10:12:25;;;;;;;3.33;3.03;;;23.60;99.90;;;;;;5034498;28;20679;-74
2024/03/22 10:14:53;;;;;;;4.57;2.87;;;23.40;99.90;;;;;;5031629;28;20595;-74
2024/03/22 10:17:20;;;;;;;6.77;3.23;;;23.20;99.80;;;;;;5051579;28;20674;-74
2024/03/22 10:19:48;;;;;;;4.47;3.70;;;23.00;99.40;;;;;;5036851;28;20599;-74
2024/03/22 10:22:19;;;;;;;7.90;3.87;;;22.80;98.50;;;;;;5031683;28;20588;-74
2024/03/22 10:24:44;;;;;;;4.80;3.17;;;22.60;98.50;;;;;;5031234;28;20686;-74
2024/03/22 10:27:10;;;;;;;10.30;3.97;;;22.30;98.60;;;;;;5030847;28;20699;-74
2024/03/22 10:29:36;;;;;;;8.17;3.70;;;22.10;98.20;;;;;;5038082;28;20863;-75
2024/03/22 10:32:02;;;;;;;5.47;3.40;;;21.90;98.50;;;;;;5032841;28;20595;-74
2024/03/22 10:34:29;;;;;;;6.30;3.37;;;21.70;98.60;;;;;;5032695;28;20592;-73
2024/03/22 10:37:00;;;;;;;6.07;4.00;;;21.60;98.50;;;;;;5047634;28;20596;-74
2024/03/22 10:39:26;;;;;;;3.87;2.67;;;21.50;98.70;;;;;;5037760;28;20583;-74
2024/03/22 10:41:53;;;;;;;4.97;3.20;;;21.40;99.30;;;;;;5035560;28;20745;-75
2024/03/22 10:44:18;;;;;;;5.67;3.47;;;21.40;99.50;;;;;;5038650;28;20170;-74
2024/03/22 10:46:48;;;;;;;6.93;3.57;;;21.40;99.50;;;;;;5032438;28;20591;-75
2024/03/22 10:49:16;;;;;;;4.50;2.97;;;21.40;99.40;;;;;;5032370;28;20205;-75
2024/03/22 10:51:46;;;;;;;4.93;3.37;;;21.40;99.50;;;;;;5046180;28;20603;-75
2024/03/22 10:54:20;;;;;;;5.10;3.53;;;21.50;99.70;;;;;;5037050;28;20579;-75
2024/03/22 10:56:47;;;;;;;9.33;5.33;;;21.50;99.80;;;;;;5031003;28;20742;-74
2024/03/22 10:59:22;;;;;;;5.10;3.43;;;21.60;99.80;;;;;;5032174;28;20584;-74
2024/03/22 11:01:49;;;;;;;5.90;4.40;;;21.70;99.70;;;;;;5031020;28;20592;-74
2024/03/22 11:04:26;;;;;;;6.20;4.53;;;21.70;99.60;;;;;;5038864;28;20658;-74
2024/03/22 11:06:52;;;;;;;8.43;4.67;;;21.70;99.60;;;;;;5040223;28;20614;-75
2024/03/22 11:09:27;;;;;;;5.73;4.37;;;21.80;99.50;;;;;;5032338;28;20721;-75
2024/03/22 11:11:54;;;;;;;5.43;4.20;;;21.80;98.60;;;;;;5040131;28;20176;-75
2024/03/22 11:14:26;;;;;;;7.57;5.30;;;21.70;98.80;;;;;;5034455;28;20592;-75
2024/03/22 11:16:55;;;;;;;8.80;5.57;;;21.60;98.70;;;;;;5032700;28;20644;-74
2024/03/22 11:19:20;;;;;;;9.83;5.80;;;21.50;98.30;;;;;;5030248;28;20597;-74
2024/03/22 11:21:46;;;;;;;7.17;5.90;;;21.40;98.10;;;;;;5030709;28;20651;-74
2024/03/22 11:24:12;;;;;;;6.10;5.03;;;21.30;98.30;;;;;;5030594;28;20644;-75
2024/03/22 11:26:37;;;;;;;7.40;5.47;;;21.20;98.30;;;;;;5043309;28;20189;-74
2024/03/22 11:29:03;;;;;;;8.83;6.07;;;21.20;98.60;;;;;;5030447;28;20209;-76
2024/03/22 11:31:29;;;;;;;8.00;5.40;;;21.10;98.80;;;;;;5045190;28;20253;-76
2024/03/22 11:33:56;;;;;;;7.73;6.17;;;21.10;99.10;;;;;;5028183;28;20182;-75
2024/03/22 11:36:23;;;;;;;9.30;6.73;;;21.20;99.20;;;;;;5030581;28;20178;-75
2024/03/22 11:38:53;;;;;;;8.70;6.60;;;21.20;99.00;;;;;;5045779;28;20611;-76
2024/03/22 11:41:29;;;;;;;8.30;6.13;;;21.20;99.20;;;;;;5038583;28;20619;-76
2024/03/22 11:43:57;;;;;;;8.67;6.83;;;21.20;99.30;;;;;;5031558;28;20596;-76
2024/03/22 11:46:24;;;;;;;7.50;6.00;;;21.30;99.50;;;;;;5035530;28;20615;-75
2024/03/22 11:48:53;;;;;;;8.13;6.43;;;21.40;99.60;;;;;;5049960;28;20647;-74
2024/03/22 11:51:20;;;;;;;9.70;6.63;;;21.40;99.40;;;;;;5034878;28;20576;-75
2024/03/22 11:53:53;;;;;;;9.27;6.37;;;21.50;99.30;;;;;;5049499;28;20645;-75
2024/03/22 11:56:20;;;;;;;7.27;6.50;;;21.50;98.80;;;;;;5049282;28;20571;-76
2024/03/22 11:58:48;;;;;;;8.10;6.40;;;21.50;98.80;;;;;;5047362;28;20619;-76
2024/03/22 12:01:15;;;;;;;8.53;7.00;;;21.40;98.80;;;;;;5041360;28;20739;-76
2024/03/22 12:03:42;;;;;;;7.00;5.90;;;21.40;98.80;;;;;;5047889;28;20591;-76
2024/03/22 12:06:10;;;;;;;7.50;5.10;;;21.30;98.70;;;;;;5049259;28;20592;-76
2024/03/22 12:08:38;;;;;;;11.50;6.50;;;21.30;98.70;;;;;;5050570;28;20704;-76
2024/03/22 12:11:04;;;;;;;8.40;5.67;;;21.20;98.50;;;;;;5052613;28;20576;-77
2024/03/22 12:13:29;;;;;;;8.63;6.40;;;21.10;98.20;;;;;;5048001;28;20578;-76
2024/03/22 12:15:56;;;;;;;10.27;6.53;;;21.10;98.20;;;;;;5020275;28;20771;-75
2024/03/22 12:18:21;;;;;;;8.70;5.57;;;21.10;98.20;;;;;;5050948;28;20703;-75
2024/03/22 12:20:47;;;;;;;8.90;5.87;;;21.00;98.20;;;;;;5049792;28;20595;-75
2024/03/22 12:23:13;;;;;;;7.23;5.50;;;20.90;98.00;;;;;;5042993;28;20550;-75
2024/03/22 12:25:38;;;;;;;8.80;6.50;;;20.90;97.70;;;;;;5050667;28;20177;-76
2024/03/22 12:28:04;;;;;;;8.17;6.03;;;20.80;97.70;;;;;;5050873;28;20739;-76
2024/03/22 12:30:30;;;;;;;9.10;5.97;;;20.80;97.70;;;;;;5033399;28;20188;-77
2024/03/22 12:32:57;;;;;;;7.10;5.60;;;20.70;97.70;;;;;;5042895;28;20173;-76
2024/03/22 12:35:24;;;;;;;7.27;6.00;;;20.70;97.80;;;;;;5049575;28;20595;-77